Time;durP1;ratioP1;P1;durP2;ratioP2;P2;SDS_P1;SDS_P2;PMS_P1;PMS_P2;Temp;Humidity;BMP_temperature;BMP_pressure;BME280_temperature;BME280_humidity;BME280_pressure;Samples;Min_cycle;Max_cycle;Signal;HPM_P1;HPM_P2
2022/03/12 00:01:53;;;;;;;48.90;18.70;;;;;;;-5.31;58.74;99998.85;105960;1280;25258;-72
2022/03/12 00:04:19;;;;;;;52.80;19.20;;;;;;;-5.28;58.13;99995.61;105753;1280;137862;-72
2022/03/12 00:06:47;;;;;;;45.10;19.00;;;;;;;-5.25;58.31;99993.66;105871;1280;22549;-72
2022/03/12 00:09:13;;;;;;;47.80;19.80;;;;;;;-5.25;58.20;99993.80;105869;1279;24143;-72
2022/03/12 00:11:51;;;;;;;41.40;17.30;;;;;;;-5.27;57.95;99993.40;105584;1280;138353;-72
2022/03/12 00:14:21;;;;;;;55.40;19.60;;;;;;;-5.30;58.17;99992.57;105759;1280;23322;-72
2022/03/12 00:17:03;;;;;;;50.30;18.10;;;;;;;-5.33;58.06;99998.12;105797;1280;137912;-72
2022/03/12 00:19:44;;;;;;;55.80;19.90;;;;;;;-5.38;58.43;99998.42;106073;1280;22585;-72
2022/03/12 00:22:12;;;;;;;51.10;20.30;;;;;;;-5.43;58.53;99996.25;105883;1280;138776;-72
2022/03/12 00:24:40;;;;;;;53.80;19.20;;;;;;;-5.48;58.64;99991.36;105783;1280;22563;-72
2022/03/12 00:27:09;;;;;;;51.50;19.50;;;;;;;-5.54;58.79;99992.08;105776;1280;24228;-72
2022/03/12 00:29:37;;;;;;;42.20;18.30;;;;;;;-5.59;59.10;99993.66;106106;1279;137839;-72
2022/03/12 00:32:05;;;;;;;44.90;18.00;;;;;;;-5.62;59.08;99993.89;105966;1280;23033;-73
2022/03/12 00:34:31;;;;;;;45.40;17.70;;;;;;;-5.66;59.22;99993.27;105852;1280;138095;-73
2022/03/12 00:36:58;;;;;;;48.60;18.00;;;;;;;-5.71;58.85;99990.05;105754;1280;22570;-73
2022/03/12 00:39:24;;;;;;;45.00;18.60;;;;;;;-5.77;59.15;99989.35;105657;1280;23928;-73
2022/03/12 00:41:50;;;;;;;43.10;16.60;;;;;;;-5.81;59.62;99991.77;105717;1280;137917;-73
2022/03/12 00:44:20;;;;;;;45.40;18.90;;;;;;;-5.88;59.95;99992.06;105739;1280;22582;-73
2022/03/12 00:46:46;;;;;;;40.70;16.40;;;;;;;-5.94;60.13;99991.92;105665;1279;137878;-72
2022/03/12 00:49:13;;;;;;;46.60;16.30;;;;;;;-6.00;60.34;99986.66;105810;1281;22583;-71
2022/03/12 00:51:39;;;;;;;43.10;17.50;;;;;;;-6.04;60.12;99987.66;105889;1280;22562;-72
2022/03/12 00:54:06;;;;;;;39.20;18.50;;;;;;;-6.08;59.96;99986.33;105591;1280;139015;-71
2022/03/12 00:56:33;;;;;;;38.60;18.50;;;;;;;-6.09;60.27;99988.17;106093;1280;25516;-72
2022/03/12 00:59:00;;;;;;;43.40;19.20;;;;;;;-6.07;60.13;99989.46;105762;1280;139017;-71
2022/03/12 01:01:26;;;;;;;40.80;18.70;;;;;;;-6.03;60.44;99984.62;105825;1280;22733;-73
2022/03/12 01:03:53;;;;;;;48.10;19.90;;;;;;;-5.99;60.71;99991.20;105505;1280;138693;-71
2022/03/12 01:06:19;;;;;;;46.50;19.60;;;;;;;-5.92;60.80;99983.85;105920;1280;22566;-74
2022/03/12 01:08:47;;;;;;;54.90;20.30;;;;;;;-5.84;60.69;99988.08;105792;1280;24069;-74
2022/03/12 01:11:13;;;;;;;50.50;20.40;;;;;;;-5.76;60.45;99985.61;105755;1280;137987;-74
2022/03/12 01:13:40;;;;;;;50.90;20.40;;;;;;;-5.70;60.33;99983.63;105736;1280;22550;-72
2022/03/12 01:16:07;;;;;;;48.00;19.10;;;;;;;-5.67;60.13;99983.21;105752;1280;137894;-73
2022/03/12 01:18:38;;;;;;;47.10;19.30;;;;;;;-5.64;59.61;99982.70;105820;1280;25430;-74
2022/03/12 01:21:16;;;;;;;45.90;19.00;;;;;;;-5.62;59.52;99984.11;105928;1280;25406;-74
2022/03/12 01:23:46;;;;;;;51.50;19.50;;;;;;;-5.62;59.28;99987.34;105805;1280;138289;-74
2022/03/12 01:26:12;;;;;;;43.00;18.10;;;;;;;-5.67;59.36;99987.11;105680;1280;25339;-74
2022/03/12 01:28:41;;;;;;;47.00;18.70;;;;;;;-5.72;59.31;99988.87;105789;1280;138677;-74
2022/03/12 01:31:08;;;;;;;45.30;18.00;;;;;;;-5.76;59.56;99990.02;106164;1280;22689;-74
2022/03/12 01:33:34;;;;;;;44.10;18.50;;;;;;;-5.81;59.61;99985.92;106040;1279;25276;-72
2022/03/12 01:36:01;;;;;;;44.30;17.00;;;;;;;-5.86;59.48;99983.80;105834;1280;138700;-72
2022/03/12 01:38:36;;;;;;;47.40;16.60;;;;;;;-5.92;59.35;99985.45;106080;1279;22714;-72
2022/03/12 01:41:03;;;;;;;48.40;18.00;;;;;;;-5.98;59.57;99986.73;105842;1280;138056;-72
2022/03/12 01:43:32;;;;;;;47.10;17.70;;;;;;;-6.02;59.81;99985.61;106127;1280;22563;-72
2022/03/12 01:46:02;;;;;;;52.00;19.70;;;;;;;-6.06;59.74;99985.02;105908;1280;138039;-72
2022/03/12 01:48:30;;;;;;;45.40;17.90;;;;;;;-6.10;59.20;99983.82;106048;1279;22553;-72
2022/03/12 01:50:57;;;;;;;50.30;19.30;;;;;;;-6.13;59.85;99978.89;106041;1279;23318;-71
2022/03/12 01:53:26;;;;;;;52.50;18.60;;;;;;;-6.17;59.92;99976.30;105979;1280;138126;-72
2022/03/12 01:56:08;;;;;;;47.80;18.70;;;;;;;-6.20;60.16;99971.04;106099;1280;22588;-72
2022/03/12 01:58:35;;;;;;;44.40;17.70;;;;;;;-6.23;60.17;99966.64;105893;1280;138054;-72
2022/03/12 02:01:03;;;;;;;43.00;18.30;;;;;;;-6.24;60.29;99964.64;106058;1280;24378;-72
2022/03/12 02:03:32;;;;;;;47.40;18.60;;;;;;;-6.24;60.24;99965.68;105889;1280;31876;-72
2022/03/12 02:05:59;;;;;;;45.50;18.80;;;;;;;-6.23;60.33;99959.41;105873;1280;138807;-72
2022/03/12 02:08:28;;;;;;;46.80;17.60;;;;;;;-6.17;60.47;99957.79;106112;1279;22711;-72
2022/03/12 02:10:57;;;;;;;47.00;18.90;;;;;;;-6.09;60.23;99955.28;105968;1280;138481;-72
2022/03/12 02:13:24;;;;;;;47.00;20.10;;;;;;;-6.00;60.11;99951.52;105918;1280;24226;-72
2022/03/12 02:16:09;;;;;;;49.10;19.90;;;;;;;-5.90;60.01;99946.96;105914;1280;139460;-72
2022/03/12 02:18:39;;;;;;;53.10;20.90;;;;;;;-5.81;59.97;99939.77;106078;1280;24276;-72
2022/03/12 02:21:05;;;;;;;54.40;21.20;;;;;;;-5.75;59.60;99939.86;105988;1280;22557;-72
2022/03/12 02:23:51;;;;;;;55.70;20.80;;;;;;;-5.70;59.70;99939.20;105837;1280;137622;-72
2022/03/12 02:26:17;;;;;;;53.00;21.40;;;;;;;-5.67;59.59;99940.76;105967;1280;22714;-72
2022/03/12 02:28:45;;;;;;;52.50;21.80;;;;;;;-5.66;59.29;99934.49;106052;1280;138261;-72
2022/03/12 02:31:14;;;;;;;52.00;22.10;;;;;;;-5.68;59.27;99941.88;106014;1280;25398;-72
2022/03/12 02:33:43;;;;;;;54.00;21.50;;;;;;;-5.71;58.95;99944.06;106031;1280;22713;-72
2022/03/12 02:36:13;;;;;;;56.10;21.00;;;;;;;-5.76;59.03;99940.84;105947;1280;138254;-72
2022/03/12 02:38:41;;;;;;;52.30;20.80;;;;;;;-5.82;58.89;99938.10;106069;1280;25308;-72
2022/03/12 02:41:10;;;;;;;46.60;19.70;;;;;;;-5.88;59.19;99939.36;106062;1280;138464;-72
2022/03/12 02:43:43;;;;;;;45.40;19.10;;;;;;;-5.92;58.99;99940.52;105911;1280;22706;-72
2022/03/12 02:46:12;;;;;;;52.60;19.20;;;;;;;-5.97;59.27;99941.05;106133;1280;138246;-72
2022/03/12 02:48:39;;;;;;;49.70;19.10;;;;;;;-6.02;59.58;99937.51;105856;1280;22600;-72
2022/03/12 02:51:06;;;;;;;53.50;20.40;;;;;;;-6.07;59.28;99936.94;106056;1280;22593;-72
2022/03/12 02:53:32;;;;;;;54.10;18.30;;;;;;;-6.11;59.42;99934.02;105775;1280;138000;-72
2022/03/12 02:55:59;;;;;;;59.60;20.50;;;;;;;-6.15;59.36;99936.60;105984;1280;22657;-72
2022/03/12 02:58:27;;;;;;;48.50;18.80;;;;;;;-6.18;59.68;99934.66;105668;1280;138263;-72
2022/03/12 03:00:53;;;;;;;47.60;18.90;;;;;;;-6.21;59.70;99930.98;105838;1280;23375;-72
2022/03/12 03:03:20;;;;;;;50.90;19.90;;;;;;;-6.23;59.86;99929.55;105991;1280;22550;-72
2022/03/12 03:05:47;;;;;;;46.80;17.50;;;;;;;-6.23;59.94;99926.52;105886;1279;138787;-73
2022/03/12 03:08:18;;;;;;;41.40;17.20;;;;;;;-6.20;60.26;99923.52;105978;1280;22684;-73
2022/03/12 03:10:50;;;;;;;47.10;18.90;;;;;;;-6.16;60.39;99922.55;105736;1280;138287;-74
2022/03/12 03:13:16;;;;;;;41.20;17.90;;;;;;;-6.12;60.03;99919.05;105820;1280;24406;-73
2022/03/12 03:15:51;;;;;;;40.00;17.30;;;;;;;-6.05;60.05;99918.98;106060;1280;23389;-73
2022/03/12 03:18:20;;;;;;;39.10;16.70;;;;;;;-5.98;59.83;99918.48;105483;1280;138431;-72
2022/03/12 03:20:48;;;;;;;44.30;16.60;;;;;;;-5.90;59.54;99912.98;105860;1280;22553;-72
2022/03/12 03:23:14;;;;;;;42.70;15.80;;;;;;;-5.86;59.57;99907.92;106100;1278;137660;-73
2022/03/12 03:25:41;;;;;;;42.00;15.60;;;;;;;-5.83;59.33;99905.96;105889;1280;26829;-71
2022/03/12 03:28:08;;;;;;;40.90;16.20;;;;;;;-5.80;58.96;99906.31;105875;1280;137966;-72
2022/03/12 03:30:37;;;;;;;42.60;14.80;;;;;;;-5.79;58.82;99912.25;105996;1280;23278;-72
2022/03/12 03:33:06;;;;;;;35.40;17.30;;;;;;;-5.80;59.01;99910.54;106153;1280;22569;-72
2022/03/12 03:35:33;;;;;;;44.40;16.30;;;;;;;-5.81;59.13;99916.58;106026;1280;138459;-72
2022/03/12 03:37:59;;;;;;;38.50;15.30;;;;;;;-5.83;59.21;99922.23;105978;1280;22715;-72
2022/03/12 03:40:26;;;;;;;41.40;16.30;;;;;;;-5.86;59.06;99923.16;105806;1280;138071;-72
2022/03/12 03:42:53;;;;;;;40.90;14.90;;;;;;;-5.89;59.04;99922.48;106038;1277;23941;-72
2022/03/12 03:45:23;;;;;;;42.60;15.70;;;;;;;-5.92;59.19;99921.94;105870;1280;30393;-72
2022/03/12 03:47:51;;;;;;;39.00;14.00;;;;;;;-5.93;58.94;99915.33;105992;1280;138068;-72
2022/03/12 03:50:20;;;;;;;38.50;15.20;;;;;;;-5.96;59.13;99917.43;105989;1280;22569;-72
2022/03/12 03:52:47;;;;;;;41.20;15.90;;;;;;;-5.99;58.99;99919.95;105633;1280;138527;-72
2022/03/12 03:55:13;;;;;;;38.20;15.80;;;;;;;-6.01;59.09;99920.28;105999;1280;22559;-72
2022/03/12 03:57:39;;;;;;;35.90;14.30;;;;;;;-6.03;59.26;99922.02;105952;1280;25467;-72
2022/03/12 04:00:06;;;;;;;44.40;15.00;;;;;;;-6.06;58.82;99924.71;106015;1280;138451;-72
2022/03/12 04:02:38;;;;;;;45.40;17.80;;;;;;;-6.10;59.65;99926.20;106042;1280;24262;-72
2022/03/12 04:05:05;;;;;;;49.20;18.80;;;;;;;-6.15;60.16;99926.36;105811;1280;138050;-72
2022/03/12 04:07:31;;;;;;;43.80;18.60;;;;;;;-6.20;60.43;99927.20;105953;1280;22830;-72
2022/03/12 04:09:58;;;;;;;39.20;16.70;;;;;;;-6.22;60.39;99925.78;105894;1280;25484;-72
2022/03/12 04:12:24;;;;;;;37.80;15.10;;;;;;;-6.23;60.46;99928.45;105956;1280;139177;-72
2022/03/12 04:14:51;;;;;;;37.40;16.70;;;;;;;-6.20;60.39;99928.79;106050;1280;22601;-72
2022/03/12 04:17:18;;;;;;;42.50;16.30;;;;;;;-6.15;60.68;99931.27;106020;1280;138642;-72
2022/03/12 04:19:44;;;;;;;36.60;16.80;;;;;;;-6.08;60.19;99935.63;106007;1280;22579;-72
2022/03/12 04:22:11;;;;;;;40.00;17.60;;;;;;;-6.04;60.63;99930.03;105925;1280;138826;-73
2022/03/12 04:24:37;;;;;;;41.80;17.90;;;;;;;-5.99;60.18;99933.61;105900;1280;24233;-72
2022/03/12 04:27:03;;;;;;;47.60;18.30;;;;;;;-5.94;59.97;99929.14;105868;1280;22585;-72
2022/03/12 04:29:30;;;;;;;40.90;18.20;;;;;;;-5.89;59.89;99931.45;106089;1279;137689;-73
2022/03/12 04:31:56;;;;;;;48.40;18.10;;;;;;;-5.85;60.13;99928.41;105999;1280;22570;-72
2022/03/12 04:34:23;;;;;;;48.20;18.90;;;;;;;-5.83;60.06;99922.45;105963;1280;138688;-73
2022/03/12 04:36:49;;;;;;;48.70;18.30;;;;;;;-5.84;60.01;99921.41;106025;1280;22641;-72
2022/03/12 04:39:16;;;;;;;44.20;18.90;;;;;;;-5.90;59.96;99922.50;106002;1280;24265;-72
2022/03/12 04:41:42;;;;;;;49.90;20.00;;;;;;;-5.95;59.92;99921.45;106118;1280;138012;-72
2022/03/12 04:44:09;;;;;;;51.20;19.40;;;;;;;-6.00;60.18;99923.20;105828;1280;22774;-72
2022/03/12 04:46:36;;;;;;;45.40;17.70;;;;;;;-6.04;59.86;99921.77;105757;1280;138510;-72
2022/03/12 04:49:04;;;;;;;45.80;19.20;;;;;;;-6.10;59.97;99922.50;106125;1280;25354;-72
2022/03/12 04:51:31;;;;;;;50.40;19.30;;;;;;;-6.17;60.47;99919.05;106186;1280;24308;-72
2022/03/12 04:53:58;;;;;;;47.20;19.00;;;;;;;-6.25;60.66;99920.31;105939;1280;137979;-72
2022/03/12 04:56:25;;;;;;;50.20;19.20;;;;;;;-6.33;60.91;99922.61;105946;1280;24501;-73
2022/03/12 04:58:53;;;;;;;50.40;19.20;;;;;;;-6.40;61.78;99925.14;105952;1280;137956;-72
2022/03/12 05:01:20;;;;;;;49.90;20.10;;;;;;;-6.46;61.29;99923.98;106032;1280;22569;-73
2022/03/12 05:03:48;;;;;;;48.40;17.40;;;;;;;-6.51;61.85;99923.77;105795;1280;22632;-72
2022/03/12 05:06:18;;;;;;;46.30;19.40;;;;;;;-6.57;61.76;99919.17;105929;1280;138968;-72
2022/03/12 05:08:45;;;;;;;41.60;18.40;;;;;;;-6.61;61.78;99920.15;105935;1280;22565;-72
2022/03/12 05:11:11;;;;;;;45.10;19.00;;;;;;;-6.61;61.85;99923.36;105997;1280;139118;-72
2022/03/12 05:13:38;;;;;;;47.30;19.50;;;;;;;-6.62;62.20;99924.09;105973;1280;23934;-73
2022/03/12 05:16:06;;;;;;;48.20;20.40;;;;;;;-6.60;62.24;99925.61;105863;1280;138686;-71
2022/03/12 05:18:36;;;;;;;46.90;19.20;;;;;;;-6.57;62.77;99924.70;105971;1280;22574;-74
2022/03/12 05:21:03;;;;;;;46.70;19.20;;;;;;;-6.55;63.26;99920.09;106162;1279;22587;-74
2022/03/12 05:23:33;;;;;;;45.00;19.40;;;;;;;-6.51;63.38;99924.08;105842;1279;138407;-74
2022/03/12 05:25:59;;;;;;;47.80;20.00;;;;;;;-6.49;63.39;99923.13;105739;1280;22676;-72
2022/03/12 05:28:31;;;;;;;52.60;19.70;;;;;;;-6.42;64.04;99924.95;105759;1280;138678;-72
2022/03/12 05:31:04;;;;;;;55.30;21.00;;;;;;;-6.32;64.88;99928.69;105903;1280;22581;-72
2022/03/12 05:33:31;;;;;;;45.70;19.70;;;;;;;-6.25;64.87;99925.23;105979;1280;23388;-72
2022/03/12 05:35:58;;;;;;;51.00;20.60;;;;;;;-6.22;64.68;99921.29;106013;1280;138076;-72
2022/03/12 05:38:38;;;;;;;54.60;21.80;;;;;;;-6.19;64.76;99916.73;106104;1279;22559;-72
2022/03/12 05:41:09;;;;;;;47.50;20.10;;;;;;;-6.25;64.33;99913.90;105454;1283;138706;-72
2022/03/12 05:43:38;;;;;;;50.00;21.40;;;;;;;-6.31;64.14;99912.88;105899;1280;25354;-72
2022/03/12 05:46:05;;;;;;;52.30;20.70;;;;;;;-6.35;64.45;99911.26;105687;1280;138386;-74
2022/03/12 05:48:32;;;;;;;51.00;20.30;;;;;;;-6.38;64.54;99908.39;106015;1279;22723;-72
2022/03/12 05:50:59;;;;;;;55.50;20.60;;;;;;;-6.40;64.01;99909.80;105862;1280;24297;-72
2022/03/12 05:53:25;;;;;;;44.10;17.70;;;;;;;-6.41;64.38;99910.58;105685;1280;138106;-72
2022/03/12 05:55:53;;;;;;;50.70;19.40;;;;;;;-6.41;64.36;99909.48;106046;1280;22567;-73
2022/03/12 05:58:21;;;;;;;41.70;18.40;;;;;;;-6.39;64.17;99907.44;105943;1280;138300;-73
2022/03/12 06:00:54;;;;;;;49.50;19.80;;;;;;;-6.37;63.97;99905.91;105952;1280;24373;-73
2022/03/12 06:03:21;;;;;;;47.20;18.70;;;;;;;-6.34;64.22;99905.86;105786;1280;22583;-72
2022/03/12 06:05:54;;;;;;;51.70;19.40;;;;;;;-6.31;64.60;99902.99;105869;1280;137935;-72
2022/03/12 06:08:22;;;;;;;47.90;19.50;;;;;;;-6.27;64.56;99902.23;105807;1281;32024;-72
2022/03/12 06:10:52;;;;;;;49.10;19.90;;;;;;;-6.21;64.62;99901.34;105803;1280;138579;-72
2022/03/12 06:13:23;;;;;;;43.00;19.10;;;;;;;-6.13;64.47;99900.72;105904;1280;25558;-72
2022/03/12 06:16:04;;;;;;;45.90;18.90;;;;;;;-6.00;64.30;99895.63;105655;1280;139993;-72
2022/03/12 06:18:34;;;;;;;48.80;19.90;;;;;;;-5.86;64.00;99892.22;105954;1280;22654;-73
2022/03/12 06:21:02;;;;;;;47.60;19.50;;;;;;;-5.71;63.60;99890.13;106098;1280;22665;-73
2022/03/12 06:23:29;;;;;;;48.30;19.50;;;;;;;-5.57;63.62;99888.95;105873;1281;138531;-72
2022/03/12 06:25:55;;;;;;;48.90;20.20;;;;;;;-5.43;63.34;99888.73;105811;1280;24278;-72
2022/03/12 06:28:22;;;;;;;50.20;20.00;;;;;;;-5.28;62.85;99898.11;106084;1280;138092;-73
2022/03/12 06:30:53;;;;;;;52.90;19.90;;;;;;;-5.16;62.79;99899.70;106038;1280;22563;-73
2022/03/12 06:33:20;;;;;;;41.60;18.70;;;;;;;-5.03;62.40;99898.83;105995;1280;22557;-73
2022/03/12 06:35:47;;;;;;;48.70;20.30;;;;;;;-4.94;62.18;99904.55;105737;1280;139289;-73
2022/03/12 06:38:15;;;;;;;54.00;20.90;;;;;;;-4.89;62.31;99905.23;105956;1280;25451;-73
2022/03/12 06:40:58;;;;;;;48.90;20.70;;;;;;;-4.80;62.05;99906.55;105846;1280;138306;-73
2022/03/12 06:43:28;;;;;;;42.50;19.40;;;;;;;-4.75;61.68;99904.94;106100;1280;25224;-72
2022/03/12 06:45:58;;;;;;;54.00;20.40;;;;;;;-4.71;61.12;99909.63;106079;1280;22553;-72
2022/03/12 06:48:26;;;;;;;47.00;19.80;;;;;;;-4.67;61.09;99908.98;105935;1280;138035;-72
2022/03/12 06:50:52;;;;;;;50.40;20.20;;;;;;;-4.61;61.18;99910.15;105978;1280;25323;-72
2022/03/12 06:53:19;;;;;;;47.60;18.60;;;;;;;-4.57;61.03;99911.27;105916;1280;138485;-72
2022/03/12 06:55:45;;;;;;;44.20;18.70;;;;;;;-4.52;61.07;99906.30;106152;1280;22563;-72
2022/03/12 06:58:14;;;;;;;47.00;18.60;;;;;;;-4.48;60.81;99904.00;105495;1280;138076;-74
2022/03/12 07:00:41;;;;;;;49.30;18.40;;;;;;;-4.42;60.58;99906.75;105866;1280;22701;-72
2022/03/12 07:03:08;;;;;;;41.90;16.50;;;;;;;-4.36;60.75;99903.00;105830;1280;22568;-72
2022/03/12 07:05:35;;;;;;;46.70;16.70;;;;;;;-4.32;60.47;99900.93;105849;1280;138264;-72
2022/03/12 07:08:01;;;;;;;43.60;16.70;;;;;;;-4.28;60.22;99904.89;105744;1280;22549;-72
2022/03/12 07:10:29;;;;;;;42.00;16.60;;;;;;;-4.25;60.02;99905.15;105972;1280;138446;-72
2022/03/12 07:12:55;;;;;;;35.90;14.70;;;;;;;-4.19;59.54;99906.86;105899;1280;23303;-72
2022/03/12 07:15:22;;;;;;;35.30;14.80;;;;;;;-4.13;59.90;99908.73;105823;1280;22704;-72
2022/03/12 07:17:49;;;;;;;47.40;17.80;;;;;;;-4.09;59.27;99907.48;105933;1279;138002;-72
2022/03/12 07:20:17;;;;;;;38.80;16.40;;;;;;;-4.02;59.91;99907.88;106005;1279;22641;-72
2022/03/12 07:22:45;;;;;;;41.50;17.10;;;;;;;-3.96;59.80;99907.48;105878;1280;138315;-72
2022/03/12 07:25:13;;;;;;;36.40;15.30;;;;;;;-3.91;58.90;99907.21;106018;1283;22547;-72
2022/03/12 07:27:40;;;;;;;44.20;16.50;;;;;;;-3.83;59.19;99915.85;105713;1281;26152;-72
2022/03/12 07:30:08;;;;;;;36.00;16.20;;;;;;;-3.78;58.43;99913.53;105951;1280;137867;-72
2022/03/12 07:32:35;;;;;;;41.20;15.00;;;;;;;-3.71;58.34;99916.86;106148;1279;26155;-72
2022/03/12 07:35:03;;;;;;;36.20;14.50;;;;;;;-3.64;58.12;99917.60;105892;1280;138370;-72
2022/03/12 07:37:30;;;;;;;32.80;13.90;;;;;;;-3.57;58.23;99919.90;106192;1280;22551;-72
2022/03/12 07:39:56;;;;;;;43.00;16.30;;;;;;;-3.49;57.65;99918.77;105940;1280;23270;-72
2022/03/12 07:42:22;;;;;;;33.10;14.20;;;;;;;-3.40;57.63;99918.95;105804;1280;137886;-72
2022/03/12 07:45:04;;;;;;;33.30;13.30;;;;;;;-3.30;57.18;99916.92;105936;1280;22594;-72
2022/03/12 07:47:30;;;;;;;27.50;12.00;;;;;;;-3.21;56.88;99920.30;105704;1280;138209;-73
2022/03/12 07:49:56;;;;;;;30.60;12.90;;;;;;;-3.11;56.51;99918.13;105975;1280;24303;-73
2022/03/12 07:52:23;;;;;;;31.90;13.10;;;;;;;-3.02;56.19;99915.81;105755;1280;138067;-72
2022/03/12 07:54:49;;;;;;;33.20;13.80;;;;;;;-2.94;55.90;99912.98;105650;1280;23057;-72
2022/03/12 07:57:16;;;;;;;27.50;11.40;;;;;;;-2.84;55.85;99910.27;105791;1280;22651;-72
2022/03/12 07:59:42;;;;;;;32.10;11.10;;;;;;;-2.74;55.03;99911.62;105841;1280;139011;-73
2022/03/12 08:02:09;;;;;;;32.30;12.30;;;;;;;-2.63;54.89;99911.30;106129;1280;22845;-72
2022/03/12 08:04:35;;;;;;;27.40;11.80;;;;;;;-2.53;54.90;99910.30;105746;1280;138646;-72
2022/03/12 08:07:04;;;;;;;26.60;10.60;;;;;;;-2.41;54.49;99908.95;105826;1280;24230;-72
2022/03/12 08:09:32;;;;;;;23.20;10.40;;;;;;;-2.31;54.14;99905.92;106058;1280;24498;-72
2022/03/12 08:11:59;;;;;;;27.40;11.50;;;;;;;-2.19;53.29;99904.65;105817;1280;137899;-72
2022/03/12 08:14:26;;;;;;;24.80;10.70;;;;;;;-2.09;53.11;99902.91;106316;1280;22544;-72
2022/03/12 08:16:53;;;;;;;22.80;9.70;;;;;;;-2.00;52.49;99900.00;105915;1280;138151;-73
2022/03/12 08:19:21;;;;;;;18.30;8.60;;;;;;;-1.89;51.73;99890.95;106099;1280;23088;-73
2022/03/12 08:21:49;;;;;;;22.10;10.50;;;;;;;-1.80;51.24;99892.27;106002;1280;22697;-72
2022/03/12 08:24:15;;;;;;;21.00;9.10;;;;;;;-1.70;51.19;99895.04;105729;1280;138316;-72
2022/03/12 08:26:43;;;;;;;26.50;10.80;;;;;;;-1.61;51.01;99897.27;105875;1280;22547;-72
2022/03/12 08:29:14;;;;;;;21.00;9.20;;;;;;;-1.49;50.85;99899.45;105932;1280;137971;-72
2022/03/12 08:31:41;;;;;;;21.40;9.20;;;;;;;-1.38;50.50;99895.09;105786;1280;22553;-72
2022/03/12 08:34:09;;;;;;;22.50;10.30;;;;;;;-1.27;50.02;99892.22;105717;1280;138727;-72
2022/03/12 08:36:35;;;;;;;23.50;9.80;;;;;;;-1.15;50.37;99892.08;106004;1280;24100;-72
2022/03/12 08:39:03;;;;;;;21.10;9.90;;;;;;;-1.01;50.22;99895.86;105840;1280;22585;-72
2022/03/12 08:41:29;;;;;;;21.70;10.50;;;;;;;-0.90;49.67;99899.02;105828;1280;137711;-72
2022/03/12 08:43:56;;;;;;;22.80;10.90;;;;;;;-0.80;49.22;99892.38;105914;1279;22567;-72
2022/03/12 08:46:22;;;;;;;28.30;10.60;;;;;;;-0.69;49.27;99887.81;105868;1280;137823;-72
2022/03/12 08:48:49;;;;;;;20.50;8.80;;;;;;;-0.57;49.25;99889.83;106026;1280;25429;-74
2022/03/12 08:51:15;;;;;;;20.80;8.90;;;;;;;-0.45;48.31;99889.39;105869;1280;23713;-72
2022/03/12 08:53:42;;;;;;;24.90;10.40;;;;;;;-0.31;48.22;99887.99;105812;1280;137619;-73
2022/03/12 08:56:08;;;;;;;21.70;9.50;;;;;;;-0.17;47.48;99890.70;105821;1280;22567;-72
2022/03/12 08:58:36;;;;;;;20.50;8.60;;;;;;;-0.07;47.33;99888.19;105811;1280;138250;-72
2022/03/12 09:01:05;;;;;;;19.40;8.50;;;;;;;0.03;46.43;99893.62;105849;1280;22852;-71
2022/03/12 09:03:33;;;;;;;18.00;7.70;;;;;;;0.16;46.55;99894.95;105820;1280;22610;-72
2022/03/12 09:05:59;;;;;;;17.40;8.60;;;;;;;0.30;45.38;99893.28;105615;1281;137598;-71
2022/03/12 09:08:26;;;;;;;23.90;10.10;;;;;;;0.43;45.08;99892.80;105759;1283;22667;-70
2022/03/12 09:10:53;;;;;;;20.40;7.80;;;;;;;0.54;45.14;99893.86;105796;1280;137623;-71
2022/03/12 09:13:19;;;;;;;18.00;7.20;;;;;;;0.66;44.33;99893.46;105905;1280;22566;-71
2022/03/12 09:15:46;;;;;;;17.00;7.50;;;;;;;0.79;43.45;99890.30;105666;1280;240892;-71
2022/03/12 09:18:14;;;;;;;16.60;7.60;;;;;;;0.90;42.88;99887.23;105786;1280;137920;-72
2022/03/12 09:20:45;;;;;;;17.50;8.30;;;;;;;1.01;42.18;99884.27;105663;1281;22540;-72
2022/03/12 09:23:19;;;;;;;18.50;7.90;;;;;;;1.11;42.26;99888.96;105824;1281;137475;-72
2022/03/12 09:25:47;;;;;;;14.10;7.00;;;;;;;1.28;43.37;99882.55;105766;1281;25370;-72
2022/03/12 09:28:14;;;;;;;16.70;8.00;;;;;;;1.43;43.04;99883.27;105820;1280;138146;-72
2022/03/12 09:30:41;;;;;;;13.80;7.40;;;;;;;1.55;42.35;99881.91;105901;1280;24355;-72
2022/03/12 09:33:09;;;;;;;18.40;7.70;;;;;;;1.64;42.08;99880.63;105864;1280;22557;-72
2022/03/12 09:35:36;;;;;;;16.40;7.70;;;;;;;1.74;41.65;99881.96;105863;1281;137494;-72
2022/03/12 09:38:03;;;;;;;15.30;7.50;;;;;;;1.83;41.03;99879.94;106678;1281;25261;-72
2022/03/12 09:40:30;;;;;;;17.20;7.30;;;;;;;1.92;40.69;99874.75;106016;1280;137768;-72
2022/03/12 09:42:57;;;;;;;15.10;7.30;;;;;;;2.03;40.27;99872.63;106146;1280;22548;-72
2022/03/12 09:45:24;;;;;;;13.70;5.70;;;;;;;2.15;39.57;99868.36;106017;1278;23440;-72
2022/03/12 09:47:51;;;;;;;14.20;6.80;;;;;;;2.22;38.30;99856.48;105953;1280;137631;-72
2022/03/12 09:50:17;;;;;;;15.50;7.20;;;;;;;2.30;38.10;99857.39;106393;1280;23099;-72
2022/03/12 09:52:44;;;;;;;15.70;7.70;;;;;;;2.36;38.11;99851.55;105783;1280;138025;-73
2022/03/12 09:55:11;;;;;;;16.20;7.40;;;;;;;2.44;38.22;99850.70;106019;1281;25406;-73
2022/03/12 09:57:37;;;;;;;15.40;7.10;;;;;;;2.55;38.35;99844.98;106100;1278;25512;-73
2022/03/12 10:00:06;;;;;;;14.20;7.50;;;;;;;2.63;37.70;99838.34;106096;1281;138039;-72
2022/03/12 10:02:38;;;;;;;14.60;7.10;;;;;;;2.73;37.75;99832.70;106262;1281;22572;-72
2022/03/12 10:05:19;;;;;;;14.60;6.20;;;;;;;2.86;37.63;99830.26;105853;1281;137556;-71
2022/03/12 10:07:45;;;;;;;14.60;7.60;;;;;;;2.97;37.23;99828.38;105823;1280;22528;-72
2022/03/12 10:10:16;;;;;;;18.10;8.00;;;;;;;3.09;37.15;99823.14;105949;1281;137490;-72
2022/03/12 10:12:43;;;;;;;18.90;8.20;;;;;;;3.19;36.78;99823.45;105902;1280;22557;-72
2022/03/12 10:15:11;;;;;;;17.60;7.60;;;;;;;3.26;36.05;99820.77;106366;1280;22688;-73
2022/03/12 10:17:38;;;;;;;17.30;8.70;;;;;;;3.31;35.44;99817.19;106094;1281;137745;-74
2022/03/12 10:20:10;;;;;;;21.90;8.80;;;;;;;3.39;35.58;99817.81;105594;1281;25372;-76
2022/03/12 10:22:38;;;;;;;19.60;8.80;;;;;;;3.46;35.36;99815.13;105800;1281;137599;-74
2022/03/12 10:25:06;;;;;;;21.20;9.70;;;;;;;3.52;35.69;99818.08;106119;1281;22561;-73
2022/03/12 10:27:33;;;;;;;22.10;9.90;;;;;;;3.59;35.62;99808.28;106321;1281;22557;-74
2022/03/12 10:30:00;;;;;;;23.20;10.20;;;;;;;3.66;35.21;99805.19;106301;1281;137574;-72
2022/03/12 10:32:31;;;;;;;22.30;10.30;;;;;;;3.75;35.61;99798.61;105742;1281;22661;-71
2022/03/12 10:35:01;;;;;;;20.30;9.40;;;;;;;3.87;35.47;99798.57;105681;1281;137575;-71
2022/03/12 10:37:30;;;;;;;;;;;;;;;3.99;35.33;99793.27;105764;1281;22618;-75
2022/03/12 10:40:06;;;;;;;20.90;10.10;;;;;;;4.10;35.91;99792.30;105884;1280;24413;-73
2022/03/12 10:42:34;;;;;;;21.30;9.70;;;;;;;4.21;35.10;99790.39;105606;1281;137736;-73
2022/03/12 10:45:09;;;;;;;22.20;10.30;;;;;;;4.30;34.99;99788.95;105897;1281;22563;-73
2022/03/12 10:47:50;;;;;;;20.50;9.60;;;;;;;4.41;34.52;99783.79;105859;1280;137503;-73
2022/03/12 10:50:25;;;;;;;23.10;9.70;;;;;;;4.49;33.96;99783.63;105817;1281;22566;-73
2022/03/12 10:52:56;;;;;;;18.00;9.40;;;;;;;4.55;33.80;99780.04;105645;1281;137836;-75
2022/03/12 10:55:33;;;;;;;16.90;8.60;;;;;;;4.63;33.76;99779.71;105683;1281;24219;-77
2022/03/12 10:58:10;;;;;;;18.60;8.80;;;;;;;4.77;34.53;99779.62;105775;1281;22723;-73
2022/03/12 11:00:40;;;;;;;20.60;9.70;;;;;;;4.91;34.67;99774.98;105548;1281;138317;-73
2022/03/12 11:03:09;;;;;;;;;;;;;;;5.07;34.66;99766.38;105844;1281;25233;-73
2022/03/12 11:05:36;;;;;;;;;;;;;;;5.20;33.74;99761.92;105892;1281;123654;-74
2022/03/12 11:08:15;;;;;;;17.80;8.20;;;;;;;5.26;33.51;99763.10;105806;1281;22575;-75
2022/03/12 11:10:50;;;;;;;18.80;9.20;;;;;;;5.30;32.98;99758.12;105885;1281;137557;-75
2022/03/12 11:13:41;;;;;;;18.70;8.90;;;;;;;5.33;32.76;99756.58;105672;1281;25255;-75
2022/03/12 11:16:28;;;;;;;21.00;9.50;;;;;;;5.35;32.15;99756.06;105863;1280;22621;-75